sensor_id;sensor_type;location;lat;lon;timestamp;temperature;humidity
61807;DHT22;47726;52.766;6.606;2022-07-29T00:02:26;16.90;96.20
61807;DHT22;47726;52.766;6.606;2022-07-29T00:04:51;16.80;96.40
61807;DHT22;47726;52.766;6.606;2022-07-29T00:07:17;16.80;96.40
61807;DHT22;47726;52.766;6.606;2022-07-29T00:09:42;16.70;96.40
61807;DHT22;47726;52.766;6.606;2022-07-29T00:12:08;16.80;96.50
61807;DHT22;47726;52.766;6.606;2022-07-29T00:14:34;16.70;96.70
61807;DHT22;47726;52.766;6.606;2022-07-29T00:17:00;16.70;96.90
61807;DHT22;47726;52.766;6.606;2022-07-29T00:19:25;16.60;96.60
61807;DHT22;47726;52.766;6.606;2022-07-29T00:21:51;16.60;96.60
61807;DHT22;47726;52.766;6.606;2022-07-29T00:24:17;16.60;96.90
61807;DHT22;47726;52.766;6.606;2022-07-29T00:26:42;16.60;96.70
61807;DHT22;47726;52.766;6.606;2022-07-29T00:29:08;16.60;96.90
61807;DHT22;47726;52.766;6.606;2022-07-29T00:31:34;16.60;96.90
61807;DHT22;47726;52.766;6.606;2022-07-29T00:33:59;16.60;96.70
61807;DHT22;47726;52.766;6.606;2022-07-29T00:36:25;16.60;96.80
61807;DHT22;47726;52.766;6.606;2022-07-29T00:38:51;16.60;96.80
61807;DHT22;47726;52.766;6.606;2022-07-29T00:41:17;16.50;97.20
61807;DHT22;47726;52.766;6.606;2022-07-29T00:43:43;16.50;97.40
61807;DHT22;47726;52.766;6.606;2022-07-29T00:46:10;16.50;97.20
61807;DHT22;47726;52.766;6.606;2022-07-29T00:48:36;16.50;97.30
61807;DHT22;47726;52.766;6.606;2022-07-29T00:51:03;16.40;97.20
61807;DHT22;47726;52.766;6.606;2022-07-29T00:53:30;16.40;97.30
61807;DHT22;47726;52.766;6.606;2022-07-29T00:55:55;16.40;97.30
61807;DHT22;47726;52.766;6.606;2022-07-29T00:58:22;16.40;97.60
61807;DHT22;47726;52.766;6.606;2022-07-29T01:00:48;16.40;97.60
61807;DHT22;47726;52.766;6.606;2022-07-29T01:03:14;16.30;97.50
61807;DHT22;47726;52.766;6.606;2022-07-29T01:05:41;16.40;97.50
61807;DHT22;47726;52.766;6.606;2022-07-29T01:08:07;16.30;97.60
61807;DHT22;47726;52.766;6.606;2022-07-29T01:10:36;16.30;97.60
61807;DHT22;47726;52.766;6.606;2022-07-29T01:13:02;16.30;97.90
61807;DHT22;47726;52.766;6.606;2022-07-29T01:15:29;16.30;97.60
61807;DHT22;47726;52.766;6.606;2022-07-29T01:18:01;16.30;97.70
61807;DHT22;47726;52.766;6.606;2022-07-29T01:28:47;16.30;98.30
61807;DHT22;47726;52.766;6.606;2022-07-29T01:31:28;16.20;98.40
61807;DHT22;47726;52.766;6.606;2022-07-29T01:34:01;16.20;98.40
61807;DHT22;47726;52.766;6.606;2022-07-29T01:36:33;16.20;98.50
61807;DHT22;47726;52.766;6.606;2022-07-29T01:39:11;16.10;98.50
61807;DHT22;47726;52.766;6.606;2022-07-29T01:41:43;16.20;98.60
61807;DHT22;47726;52.766;6.606;2022-07-29T01:44:16;16.20;98.50
61807;DHT22;47726;52.766;6.606;2022-07-29T01:46:51;16.20;98.90
61807;DHT22;47726;52.766;6.606;2022-07-29T01:49:22;16.10;98.70
61807;DHT22;47726;52.766;6.606;2022-07-29T01:51:53;16.10;98.50
61807;DHT22;47726;52.766;6.606;2022-07-29T01:54:30;16.20;99.00
61807;DHT22;47726;52.766;6.606;2022-07-29T01:56:58;16.10;99.50
61807;DHT22;47726;52.766;6.606;2022-07-29T01:59:25;16.10;99.40
61807;DHT22;47726;52.766;6.606;2022-07-29T02:01:54;16.00;99.00
61807;DHT22;47726;52.766;6.606;2022-07-29T02:04:20;15.90;99.90
61807;DHT22;47726;52.766;6.606;2022-07-29T02:06:49;16.00;99.60
61807;DHT22;47726;52.766;6.606;2022-07-29T02:09:17;15.90;99.70
61807;DHT22;47726;52.766;6.606;2022-07-29T02:11:49;15.90;99.80
61807;DHT22;47726;52.766;6.606;2022-07-29T02:14:18;15.90;99.80
61807;DHT22;47726;52.766;6.606;2022-07-29T02:16:45;15.90;99.90
61807;DHT22;47726;52.766;6.606;2022-07-29T02:19:13;15.90;99.90
61807;DHT22;47726;52.766;6.606;2022-07-29T02:21:40;15.90;99.90
61807;DHT22;47726;52.766;6.606;2022-07-29T02:24:07;15.90;99.90
61807;DHT22;47726;52.766;6.606;2022-07-29T02:26:34;15.90;99.90
61807;DHT22;47726;52.766;6.606;2022-07-29T02:29:00;15.80;99.90
61807;DHT22;47726;52.766;6.606;2022-07-29T02:31:31;15.90;99.90
61807;DHT22;47726;52.766;6.606;2022-07-29T02:33:59;15.90;99.90
61807;DHT22;47726;52.766;6.606;2022-07-29T02:36:26;15.90;99.80
61807;DHT22;47726;52.766;6.606;2022-07-29T02:38:52;15.90;99.90
61807;DHT22;47726;52.766;6.606;2022-07-29T02:41:33;15.90;99.90
61807;DHT22;47726;52.766;6.606;2022-07-29T02:44:15;15.90;99.90
61807;DHT22;47726;52.766;6.606;2022-07-29T02:46:51;15.90;99.90
61807;DHT22;47726;52.766;6.606;2022-07-29T02:52:01;15.90;99.90
61807;DHT22;47726;52.766;6.606;2022-07-29T02:54:51;15.90;99.90
61807;DHT22;47726;52.766;6.606;2022-07-29T02:57:22;15.90;99.90
61807;DHT22;47726;52.766;6.606;2022-07-29T02:59:51;15.90;99.90
61807;DHT22;47726;52.766;6.606;2022-07-29T03:02:18;15.80;99.90
61807;DHT22;47726;52.766;6.606;2022-07-29T03:04:44;15.80;99.90
61807;DHT22;47726;52.766;6.606;2022-07-29T03:07:13;15.80;99.90
61807;DHT22;47726;52.766;6.606;2022-07-29T03:09:41;15.80;99.90
61807;DHT22;47726;52.766;6.606;2022-07-29T03:12:08;15.80;99.90
61807;DHT22;47726;52.766;6.606;2022-07-29T03:14:35;15.80;99.90
61807;DHT22;47726;52.766;6.606;2022-07-29T03:17:01;15.80;99.90
61807;DHT22;47726;52.766;6.606;2022-07-29T03:19:28;15.80;99.90
61807;DHT22;47726;52.766;6.606;2022-07-29T03:21:59;15.70;99.90
61807;DHT22;47726;52.766;6.606;2022-07-29T03:24:30;15.70;99.90
61807;DHT22;47726;52.766;6.606;2022-07-29T03:26:56;15.70;99.90
61807;DHT22;47726;52.766;6.606;2022-07-29T03:29:23;15.70;99.90
61807;DHT22;47726;52.766;6.606;2022-07-29T03:31:49;15.70;99.90
61807;DHT22;47726;52.766;6.606;2022-07-29T03:34:14;15.70;99.90
61807;DHT22;47726;52.766;6.606;2022-07-29T03:36:40;15.60;99.90
61807;DHT22;47726;52.766;6.606;2022-07-29T03:39:07;15.70;99.90
61807;DHT22;47726;52.766;6.606;2022-07-29T03:41:35;15.60;99.90
61807;DHT22;47726;52.766;6.606;2022-07-29T03:44:02;15.60;99.90
61807;DHT22;47726;52.766;6.606;2022-07-29T03:46:29;15.60;99.90
61807;DHT22;47726;52.766;6.606;2022-07-29T03:48:59;15.60;99.90
61807;DHT22;47726;52.766;6.606;2022-07-29T03:51:26;15.60;99.90
61807;DHT22;47726;52.766;6.606;2022-07-29T03:53:52;15.60;99.90
61807;DHT22;47726;52.766;6.606;2022-07-29T03:56:21;15.60;99.90
61807;DHT22;47726;52.766;6.606;2022-07-29T03:58:49;15.50;99.90
61807;DHT22;47726;52.766;6.606;2022-07-29T04:01:16;15.50;99.90
61807;DHT22;47726;52.766;6.606;2022-07-29T04:03:43;15.50;99.90
61807;DHT22;47726;52.766;6.606;2022-07-29T04:06:11;15.50;99.90
61807;DHT22;47726;52.766;6.606;2022-07-29T04:08:37;15.50;99.90
61807;DHT22;47726;52.766;6.606;2022-07-29T04:11:04;15.50;99.90
61807;DHT22;47726;52.766;6.606;2022-07-29T04:13:30;15.50;99.90
61807;DHT22;47726;52.766;6.606;2022-07-29T04:15:56;15.50;99.90
61807;DHT22;47726;52.766;6.606;2022-07-29T04:18:22;15.50;99.90
61807;DHT22;47726;52.766;6.606;2022-07-29T04:20:47;15.50;99.90
61807;DHT22;47726;52.766;6.606;2022-07-29T04:23:13;15.50;99.90
61807;DHT22;47726;52.766;6.606;2022-07-29T04:25:39;15.50;99.90
61807;DHT22;47726;52.766;6.606;2022-07-29T04:28:06;15.50;99.90
61807;DHT22;47726;52.766;6.606;2022-07-29T04:30:33;15.50;99.90
61807;DHT22;47726;52.766;6.606;2022-07-29T04:33:00;15.40;99.90
61807;DHT22;47726;52.766;6.606;2022-07-29T04:35:26;15.50;99.90
61807;DHT22;47726;52.766;6.606;2022-07-29T04:37:52;15.40;99.90
61807;DHT22;47726;52.766;6.606;2022-07-29T04:40:18;15.50;99.90
61807;DHT22;47726;52.766;6.606;2022-07-29T04:42:44;15.50;99.90
61807;DHT22;47726;52.766;6.606;2022-07-29T04:45:09;15.40;99.90
61807;DHT22;47726;52.766;6.606;2022-07-29T04:47:35;15.40;99.90
61807;DHT22;47726;52.766;6.606;2022-07-29T04:50:01;15.50;99.90
61807;DHT22;47726;52.766;6.606;2022-07-29T04:52:26;15.40;99.90
61807;DHT22;47726;52.766;6.606;2022-07-29T04:54:52;15.50;99.90
61807;DHT22;47726;52.766;6.606;2022-07-29T04:57:17;15.50;99.90
61807;DHT22;47726;52.766;6.606;2022-07-29T04:59:43;15.50;99.90
61807;DHT22;47726;52.766;6.606;2022-07-29T05:02:09;15.50;99.90
61807;DHT22;47726;52.766;6.606;2022-07-29T05:04:35;15.50;99.90
61807;DHT22;47726;52.766;6.606;2022-07-29T05:07:00;15.50;99.90
61807;DHT22;47726;52.766;6.606;2022-07-29T05:09:26;15.50;99.90
61807;DHT22;47726;52.766;6.606;2022-07-29T05:11:51;15.50;99.90
61807;DHT22;47726;52.766;6.606;2022-07-29T05:14:17;15.60;99.90
61807;DHT22;47726;52.766;6.606;2022-07-29T05:16:43;15.60;99.90
61807;DHT22;47726;52.766;6.606;2022-07-29T05:19:09;15.60;99.90
61807;DHT22;47726;52.766;6.606;2022-07-29T05:21:34;15.60;99.90
61807;DHT22;47726;52.766;6.606;2022-07-29T05:24:00;15.60;99.90
61807;DHT22;47726;52.766;6.606;2022-07-29T05:26:26;15.60;99.90
61807;DHT22;47726;52.766;6.606;2022-07-29T05:28:51;15.70;99.90
61807;DHT22;47726;52.766;6.606;2022-07-29T05:31:19;15.70;99.90
61807;DHT22;47726;52.766;6.606;2022-07-29T05:33:44;15.70;99.90
61807;DHT22;47726;52.766;6.606;2022-07-29T05:36:11;15.70;99.90
61807;DHT22;47726;52.766;6.606;2022-07-29T05:38:37;15.80;99.90
61807;DHT22;47726;52.766;6.606;2022-07-29T05:41:03;15.80;99.90
61807;DHT22;47726;52.766;6.606;2022-07-29T05:43:29;15.80;99.90
61807;DHT22;47726;52.766;6.606;2022-07-29T05:45:55;15.90;99.90
61807;DHT22;47726;52.766;6.606;2022-07-29T05:48:21;15.90;99.90
61807;DHT22;47726;52.766;6.606;2022-07-29T05:50:46;16.00;99.90
61807;DHT22;47726;52.766;6.606;2022-07-29T05:53:12;16.00;99.90
61807;DHT22;47726;52.766;6.606;2022-07-29T05:55:38;16.10;99.90
61807;DHT22;47726;52.766;6.606;2022-07-29T05:58:03;16.10;99.90
61807;DHT22;47726;52.766;6.606;2022-07-29T06:00:29;16.20;99.90
61807;DHT22;47726;52.766;6.606;2022-07-29T06:02:55;16.30;99.90
61807;DHT22;47726;52.766;6.606;2022-07-29T06:05:22;16.40;99.90
61807;DHT22;47726;52.766;6.606;2022-07-29T06:07:48;16.50;99.90
61807;DHT22;47726;52.766;6.606;2022-07-29T06:10:14;16.50;99.90
61807;DHT22;47726;52.766;6.606;2022-07-29T06:12:40;16.50;99.90
61807;DHT22;47726;52.766;6.606;2022-07-29T06:15:06;16.50;99.90
61807;DHT22;47726;52.766;6.606;2022-07-29T06:17:32;16.60;99.90
61807;DHT22;47726;52.766;6.606;2022-07-29T06:19:58;16.70;99.90
61807;DHT22;47726;52.766;6.606;2022-07-29T06:22:23;16.70;99.90
61807;DHT22;47726;52.766;6.606;2022-07-29T06:24:49;16.90;99.90
61807;DHT22;47726;52.766;6.606;2022-07-29T06:27:15;17.00;99.90
61807;DHT22;47726;52.766;6.606;2022-07-29T06:29:42;17.00;99.90
61807;DHT22;47726;52.766;6.606;2022-07-29T06:32:07;17.00;99.90
61807;DHT22;47726;52.766;6.606;2022-07-29T06:34:35;17.00;99.90
61807;DHT22;47726;52.766;6.606;2022-07-29T06:37:05;17.00;99.90
61807;DHT22;47726;52.766;6.606;2022-07-29T06:39:31;17.00;99.90
61807;DHT22;47726;52.766;6.606;2022-07-29T06:41:56;17.00;99.90
61807;DHT22;47726;52.766;6.606;2022-07-29T06:44:22;17.00;99.90
61807;DHT22;47726;52.766;6.606;2022-07-29T06:46:48;17.00;99.90
61807;DHT22;47726;52.766;6.606;2022-07-29T06:49:15;17.00;99.90
61807;DHT22;47726;52.766;6.606;2022-07-29T06:51:41;17.00;99.90
61807;DHT22;47726;52.766;6.606;2022-07-29T06:54:07;17.00;99.90
61807;DHT22;47726;52.766;6.606;2022-07-29T06:56:34;17.10;99.90
61807;DHT22;47726;52.766;6.606;2022-07-29T06:59:02;17.10;99.90
61807;DHT22;47726;52.766;6.606;2022-07-29T07:01:28;17.10;99.90
61807;DHT22;47726;52.766;6.606;2022-07-29T07:03:54;17.20;99.90
61807;DHT22;47726;52.766;6.606;2022-07-29T07:06:20;17.20;99.80
61807;DHT22;47726;52.766;6.606;2022-07-29T07:08:45;17.20;99.80
61807;DHT22;47726;52.766;6.606;2022-07-29T07:11:11;17.20;99.70
61807;DHT22;47726;52.766;6.606;2022-07-29T07:13:37;17.20;99.70
61807;DHT22;47726;52.766;6.606;2022-07-29T07:16:03;17.20;99.70
61807;DHT22;47726;52.766;6.606;2022-07-29T07:18:31;17.30;99.70
61807;DHT22;47726;52.766;6.606;2022-07-29T07:20:57;17.30;99.60
61807;DHT22;47726;52.766;6.606;2022-07-29T07:23:23;17.30;99.70
61807;DHT22;47726;52.766;6.606;2022-07-29T07:25:49;17.40;99.70
61807;DHT22;47726;52.766;6.606;2022-07-29T07:28:14;17.40;99.70
61807;DHT22;47726;52.766;6.606;2022-07-29T07:30:40;17.40;99.60
61807;DHT22;47726;52.766;6.606;2022-07-29T07:33:05;17.50;99.60
61807;DHT22;47726;52.766;6.606;2022-07-29T07:35:31;17.60;99.40
61807;DHT22;47726;52.766;6.606;2022-07-29T07:37:57;17.50;99.20
61807;DHT22;47726;52.766;6.606;2022-07-29T07:40:23;17.60;99.20
61807;DHT22;47726;52.766;6.606;2022-07-29T07:42:49;17.60;99.30
61807;DHT22;47726;52.766;6.606;2022-07-29T07:45:14;17.70;99.30
61807;DHT22;47726;52.766;6.606;2022-07-29T07:47:40;17.70;99.50
61807;DHT22;47726;52.766;6.606;2022-07-29T07:50:10;17.70;99.10
61807;DHT22;47726;52.766;6.606;2022-07-29T07:52:46;17.70;99.20
61807;DHT22;47726;52.766;6.606;2022-07-29T07:55:12;17.70;99.10
61807;DHT22;47726;52.766;6.606;2022-07-29T07:57:38;17.70;99.20
61807;DHT22;47726;52.766;6.606;2022-07-29T08:00:04;17.70;99.30
61807;DHT22;47726;52.766;6.606;2022-07-29T08:02:30;17.70;99.40
61807;DHT22;47726;52.766;6.606;2022-07-29T08:04:55;17.70;99.40
61807;DHT22;47726;52.766;6.606;2022-07-29T08:07:21;17.80;99.40
61807;DHT22;47726;52.766;6.606;2022-07-29T08:09:47;17.80;99.40
61807;DHT22;47726;52.766;6.606;2022-07-29T08:12:12;17.90;99.40
61807;DHT22;47726;52.766;6.606;2022-07-29T08:14:38;17.90;99.30
61807;DHT22;47726;52.766;6.606;2022-07-29T08:17:03;18.10;99.30
61807;DHT22;47726;52.766;6.606;2022-07-29T08:19:29;18.10;99.20
61807;DHT22;47726;52.766;6.606;2022-07-29T08:21:55;18.20;99.00
61807;DHT22;47726;52.766;6.606;2022-07-29T08:24:21;18.30;99.00
61807;DHT22;47726;52.766;6.606;2022-07-29T08:27:06;18.30;98.90
61807;DHT22;47726;52.766;6.606;2022-07-29T08:29:31;18.40;98.90
61807;DHT22;47726;52.766;6.606;2022-07-29T08:31:57;18.40;98.80
61807;DHT22;47726;52.766;6.606;2022-07-29T08:34:22;18.40;98.90
61807;DHT22;47726;52.766;6.606;2022-07-29T08:36:48;18.40;98.90
61807;DHT22;47726;52.766;6.606;2022-07-29T08:39:14;18.50;99.00
61807;DHT22;47726;52.766;6.606;2022-07-29T08:41:39;18.50;98.80
61807;DHT22;47726;52.766;6.606;2022-07-29T08:44:05;18.40;98.70
61807;DHT22;47726;52.766;6.606;2022-07-29T08:46:31;18.40;98.70
61807;DHT22;47726;52.766;6.606;2022-07-29T08:48:56;18.50;98.90
61807;DHT22;47726;52.766;6.606;2022-07-29T08:51:23;18.50;98.80
61807;DHT22;47726;52.766;6.606;2022-07-29T08:53:50;18.50;98.90
61807;DHT22;47726;52.766;6.606;2022-07-29T08:56:17;18.50;98.90
61807;DHT22;47726;52.766;6.606;2022-07-29T08:58:44;18.50;99.00
61807;DHT22;47726;52.766;6.606;2022-07-29T09:01:12;18.50;98.90
61807;DHT22;47726;52.766;6.606;2022-07-29T09:03:40;18.50;98.90
61807;DHT22;47726;52.766;6.606;2022-07-29T09:06:06;18.50;99.10
61807;DHT22;47726;52.766;6.606;2022-07-29T09:08:32;18.50;99.20
61807;DHT22;47726;52.766;6.606;2022-07-29T09:11:00;18.40;99.30
61807;DHT22;47726;52.766;6.606;2022-07-29T09:13:26;18.50;99.40
61807;DHT22;47726;52.766;6.606;2022-07-29T09:15:52;18.50;99.40
61807;DHT22;47726;52.766;6.606;2022-07-29T09:21:03;18.50;99.90
61807;DHT22;47726;52.766;6.606;2022-07-29T09:26:34;18.50;99.90
61807;DHT22;47726;52.766;6.606;2022-07-29T09:31:38;18.50;99.90
61807;DHT22;47726;52.766;6.606;2022-07-29T09:34:05;18.50;99.90
61807;DHT22;47726;52.766;6.606;2022-07-29T09:36:39;18.60;99.90
61807;DHT22;47726;52.766;6.606;2022-07-29T09:39:04;18.70;99.90
61807;DHT22;47726;52.766;6.606;2022-07-29T09:41:53;18.70;99.90
61807;DHT22;47726;52.766;6.606;2022-07-29T09:44:19;18.80;99.90
61807;DHT22;47726;52.766;6.606;2022-07-29T09:49:22;19.00;99.70
61807;DHT22;47726;52.766;6.606;2022-07-29T09:51:47;19.00;99.50
61807;DHT22;47726;52.766;6.606;2022-07-29T09:54:26;19.10;99.30
61807;DHT22;47726;52.766;6.606;2022-07-29T09:56:54;19.20;99.40
61807;DHT22;47726;52.766;6.606;2022-07-29T09:59:20;19.30;99.00
61807;DHT22;47726;52.766;6.606;2022-07-29T10:01:48;19.30;98.90
61807;DHT22;47726;52.766;6.606;2022-07-29T10:04:15;19.30;98.80
61807;DHT22;47726;52.766;6.606;2022-07-29T10:09:23;19.40;98.80
61807;DHT22;47726;52.766;6.606;2022-07-29T10:12:07;19.50;98.60
61807;DHT22;47726;52.766;6.606;2022-07-29T10:14:35;19.50;98.60
61807;DHT22;47726;52.766;6.606;2022-07-29T10:17:01;19.60;98.50
61807;DHT22;47726;52.766;6.606;2022-07-29T10:19:31;19.60;98.40
61807;DHT22;47726;52.766;6.606;2022-07-29T10:21:58;19.60;98.10
61807;DHT22;47726;52.766;6.606;2022-07-29T10:24:26;19.60;98.20
61807;DHT22;47726;52.766;6.606;2022-07-29T10:26:56;19.70;98.30
61807;DHT22;47726;52.766;6.606;2022-07-29T10:29:23;19.70;98.40
61807;DHT22;47726;52.766;6.606;2022-07-29T10:38:04;19.80;98.30
61807;DHT22;47726;52.766;6.606;2022-07-29T10:42:55;19.90;97.70
61807;DHT22;47726;52.766;6.606;2022-07-29T10:45:25;19.90;98.00
61807;DHT22;47726;52.766;6.606;2022-07-29T10:48:05;19.90;97.80
61807;DHT22;47726;52.766;6.606;2022-07-29T10:53:20;19.90;97.60
61807;DHT22;47726;52.766;6.606;2022-07-29T10:55:46;20.00;97.80
61807;DHT22;47726;52.766;6.606;2022-07-29T10:58:21;20.00;97.90
61807;DHT22;47726;52.766;6.606;2022-07-29T11:00:53;20.00;97.60
61807;DHT22;47726;52.766;6.606;2022-07-29T11:06:14;20.10;97.90
61807;DHT22;47726;52.766;6.606;2022-07-29T11:08:40;20.20;97.80
61807;DHT22;47726;52.766;6.606;2022-07-29T11:16:14;20.30;97.80
61807;DHT22;47726;52.766;6.606;2022-07-29T11:19:41;20.40;98.00
61807;DHT22;47726;52.766;6.606;2022-07-29T11:21:48;20.50;97.90
61807;DHT22;47726;52.766;6.606;2022-07-29T11:24:33;20.60;97.80
61807;DHT22;47726;52.766;6.606;2022-07-29T11:27:11;20.70;97.70
61807;DHT22;47726;52.766;6.606;2022-07-29T11:29:40;20.80;97.60
61807;DHT22;47726;52.766;6.606;2022-07-29T11:32:14;20.80;97.50
61807;DHT22;47726;52.766;6.606;2022-07-29T11:34:41;20.90;97.40
61807;DHT22;47726;52.766;6.606;2022-07-29T11:39:37;21.00;97.60
61807;DHT22;47726;52.766;6.606;2022-07-29T11:44:58;21.10;97.60
61807;DHT22;47726;52.766;6.606;2022-07-29T11:47:26;21.20;97.50
61807;DHT22;47726;52.766;6.606;2022-07-29T11:49:53;21.20;97.20
61807;DHT22;47726;52.766;6.606;2022-07-29T11:52:20;21.20;97.30
61807;DHT22;47726;52.766;6.606;2022-07-29T11:54:50;21.20;97.30
61807;DHT22;47726;52.766;6.606;2022-07-29T11:57:19;21.30;97.20
61807;DHT22;47726;52.766;6.606;2022-07-29T11:59:47;21.20;97.20
61807;DHT22;47726;52.766;6.606;2022-07-29T12:02:13;21.30;97.40
61807;DHT22;47726;52.766;6.606;2022-07-29T12:04:53;21.40;97.40
61807;DHT22;47726;52.766;6.606;2022-07-29T12:07:30;21.40;97.10
61807;DHT22;47726;52.766;6.606;2022-07-29T12:09:56;21.50;96.50
61807;DHT22;47726;52.766;6.606;2022-07-29T12:12:21;21.60;96.70
61807;DHT22;47726;52.766;6.606;2022-07-29T12:14:48;21.70;96.70
61807;DHT22;47726;52.766;6.606;2022-07-29T12:17:33;21.70;96.50
61807;DHT22;47726;52.766;6.606;2022-07-29T12:20:01;21.90;96.50
61807;DHT22;47726;52.766;6.606;2022-07-29T12:22:46;22.00;96.10
61807;DHT22;47726;52.766;6.606;2022-07-29T12:25:14;22.10;95.50
61807;DHT22;47726;52.766;6.606;2022-07-29T12:27:41;22.20;95.70
61807;DHT22;47726;52.766;6.606;2022-07-29T12:30:13;22.30;95.10
61807;DHT22;47726;52.766;6.606;2022-07-29T12:32:45;22.50;95.40
61807;DHT22;47726;52.766;6.606;2022-07-29T12:35:14;22.60;95.00
61807;DHT22;47726;52.766;6.606;2022-07-29T12:37:41;22.70;94.80
61807;DHT22;47726;52.766;6.606;2022-07-29T12:40:09;22.90;95.00
61807;DHT22;47726;52.766;6.606;2022-07-29T12:42:35;23.00;94.90
61807;DHT22;47726;52.766;6.606;2022-07-29T12:45:01;23.20;94.20
61807;DHT22;47726;52.766;6.606;2022-07-29T12:47:27;23.30;94.10
61807;DHT22;47726;52.766;6.606;2022-07-29T12:50:10;23.50;94.10
61807;DHT22;47726;52.766;6.606;2022-07-29T12:52:36;23.70;93.70
61807;DHT22;47726;52.766;6.606;2022-07-29T12:55:03;23.70;92.90
61807;DHT22;47726;52.766;6.606;2022-07-29T12:57:29;23.80;92.60
61807;DHT22;47726;52.766;6.606;2022-07-29T13:00:14;23.70;92.00
61807;DHT22;47726;52.766;6.606;2022-07-29T13:02:42;23.70;90.90
61807;DHT22;47726;52.766;6.606;2022-07-29T13:05:09;23.80;91.10
61807;DHT22;47726;52.766;6.606;2022-07-29T13:07:36;23.90;91.70
61807;DHT22;47726;52.766;6.606;2022-07-29T13:12:39;24.00;91.40
61807;DHT22;47726;52.766;6.606;2022-07-29T13:15:14;24.00;90.70
61807;DHT22;47726;52.766;6.606;2022-07-29T13:17:42;24.10;90.50
61807;DHT22;47726;52.766;6.606;2022-07-29T13:20:10;24.10;90.50
61807;DHT22;47726;52.766;6.606;2022-07-29T13:22:41;24.10;89.40
61807;DHT22;47726;52.766;6.606;2022-07-29T13:25:08;24.10;89.10
61807;DHT22;47726;52.766;6.606;2022-07-29T13:27:36;24.10;88.60
61807;DHT22;47726;52.766;6.606;2022-07-29T13:30:05;24.10;88.00
61807;DHT22;47726;52.766;6.606;2022-07-29T13:32:31;24.10;87.90
61807;DHT22;47726;52.766;6.606;2022-07-29T13:34:59;24.10;89.10
61807;DHT22;47726;52.766;6.606;2022-07-29T13:37:25;24.10;88.80
61807;DHT22;47726;52.766;6.606;2022-07-29T13:39:51;24.10;89.10
61807;DHT22;47726;52.766;6.606;2022-07-29T13:42:18;24.10;89.70
61807;DHT22;47726;52.766;6.606;2022-07-29T13:44:44;24.10;90.00
61807;DHT22;47726;52.766;6.606;2022-07-29T13:47:09;24.10;89.40
61807;DHT22;47726;52.766;6.606;2022-07-29T13:49:35;24.10;89.50
61807;DHT22;47726;52.766;6.606;2022-07-29T13:52:02;24.10;87.90
61807;DHT22;47726;52.766;6.606;2022-07-29T13:54:28;24.10;88.40
61807;DHT22;47726;52.766;6.606;2022-07-29T13:56:54;24.10;88.20
61807;DHT22;47726;52.766;6.606;2022-07-29T13:59:19;24.10;89.30
61807;DHT22;47726;52.766;6.606;2022-07-29T14:01:45;24.20;88.90
61807;DHT22;47726;52.766;6.606;2022-07-29T14:04:11;24.20;88.80
61807;DHT22;47726;52.766;6.606;2022-07-29T14:06:37;24.30;89.10
61807;DHT22;47726;52.766;6.606;2022-07-29T14:09:04;24.30;88.70
61807;DHT22;47726;52.766;6.606;2022-07-29T14:11:34;24.30;87.70
61807;DHT22;47726;52.766;6.606;2022-07-29T14:14:00;24.40;88.10
61807;DHT22;47726;52.766;6.606;2022-07-29T14:16:26;24.30;87.10
61807;DHT22;47726;52.766;6.606;2022-07-29T14:18:51;24.40;87.80
61807;DHT22;47726;52.766;6.606;2022-07-29T14:21:17;24.50;88.40
61807;DHT22;47726;52.766;6.606;2022-07-29T14:23:43;24.50;88.20
61807;DHT22;47726;52.766;6.606;2022-07-29T14:26:09;24.60;88.40
61807;DHT22;47726;52.766;6.606;2022-07-29T14:28:35;24.50;87.80
61807;DHT22;47726;52.766;6.606;2022-07-29T14:31:00;24.60;87.30
61807;DHT22;47726;52.766;6.606;2022-07-29T14:33:26;24.60;87.00
61807;DHT22;47726;52.766;6.606;2022-07-29T14:35:52;24.60;86.90
61807;DHT22;47726;52.766;6.606;2022-07-29T14:38:17;24.60;87.20
61807;DHT22;47726;52.766;6.606;2022-07-29T14:40:43;24.70;87.80
61807;DHT22;47726;52.766;6.606;2022-07-29T14:43:09;24.80;87.80
61807;DHT22;47726;52.766;6.606;2022-07-29T14:45:34;24.90;85.50
61807;DHT22;47726;52.766;6.606;2022-07-29T14:48:00;24.90;86.60
61807;DHT22;47726;52.766;6.606;2022-07-29T14:50:26;25.00;84.50
61807;DHT22;47726;52.766;6.606;2022-07-29T14:52:52;25.00;84.20
61807;DHT22;47726;52.766;6.606;2022-07-29T14:55:18;25.10;84.50
61807;DHT22;47726;52.766;6.606;2022-07-29T14:57:44;25.10;82.70
61807;DHT22;47726;52.766;6.606;2022-07-29T15:00:11;25.10;82.50
61807;DHT22;47726;52.766;6.606;2022-07-29T15:02:37;25.10;80.90
61807;DHT22;47726;52.766;6.606;2022-07-29T15:05:03;25.10;80.60
61807;DHT22;47726;52.766;6.606;2022-07-29T15:07:28;25.10;81.40
61807;DHT22;47726;52.766;6.606;2022-07-29T15:09:54;25.20;82.60
61807;DHT22;47726;52.766;6.606;2022-07-29T15:12:20;25.20;82.80
61807;DHT22;47726;52.766;6.606;2022-07-29T15:14:45;25.30;80.90
61807;DHT22;47726;52.766;6.606;2022-07-29T15:17:11;25.30;81.70
61807;DHT22;47726;52.766;6.606;2022-07-29T15:19:37;25.40;82.10
61807;DHT22;47726;52.766;6.606;2022-07-29T15:22:02;25.40;82.20
61807;DHT22;47726;52.766;6.606;2022-07-29T15:24:30;25.40;81.50
61807;DHT22;47726;52.766;6.606;2022-07-29T15:26:56;25.40;80.90
61807;DHT22;47726;52.766;6.606;2022-07-29T15:29:21;25.40;79.70
61807;DHT22;47726;52.766;6.606;2022-07-29T15:31:47;25.40;80.80
61807;DHT22;47726;52.766;6.606;2022-07-29T15:34:13;25.40;79.60
61807;DHT22;47726;52.766;6.606;2022-07-29T15:36:39;25.40;79.40
61807;DHT22;47726;52.766;6.606;2022-07-29T15:39:05;25.40;80.50
61807;DHT22;47726;52.766;6.606;2022-07-29T15:41:30;25.50;80.30
61807;DHT22;47726;52.766;6.606;2022-07-29T15:43:56;25.60;81.10
61807;DHT22;47726;52.766;6.606;2022-07-29T15:46:22;25.60;80.50
61807;DHT22;47726;52.766;6.606;2022-07-29T15:49:06;25.50;79.30
61807;DHT22;47726;52.766;6.606;2022-07-29T15:51:33;25.50;78.80
61807;DHT22;47726;52.766;6.606;2022-07-29T15:54:01;25.50;79.70
61807;DHT22;47726;52.766;6.606;2022-07-29T15:56:27;25.50;79.10
61807;DHT22;47726;52.766;6.606;2022-07-29T15:58:53;25.50;79.50
61807;DHT22;47726;52.766;6.606;2022-07-29T16:01:19;25.50;78.90
61807;DHT22;47726;52.766;6.606;2022-07-29T16:03:45;25.50;78.50
61807;DHT22;47726;52.766;6.606;2022-07-29T16:06:10;25.40;78.50
61807;DHT22;47726;52.766;6.606;2022-07-29T16:08:36;25.40;78.50
61807;DHT22;47726;52.766;6.606;2022-07-29T16:11:02;25.40;79.70
61807;DHT22;47726;52.766;6.606;2022-07-29T16:13:28;25.40;79.10
61807;DHT22;47726;52.766;6.606;2022-07-29T16:15:53;25.40;79.20
61807;DHT22;47726;52.766;6.606;2022-07-29T16:18:19;25.40;79.00
61807;DHT22;47726;52.766;6.606;2022-07-29T16:20:44;25.40;80.10
61807;DHT22;47726;52.766;6.606;2022-07-29T16:23:10;25.40;80.20
61807;DHT22;47726;52.766;6.606;2022-07-29T16:25:38;25.40;80.20